El Centro Naf Airport El Centro US
ICAO: KNJK
IATA: NJK
Category: Medium
Scheduled Services: No

Elevation: -42 ft
TransAlt. 18000 ft.

Airport Communications:
ATIS:26.927
CLNC DEL:34.02
GND:121.9
PMSV METRO:34.83
TWR:119.1

KNJK Zoom In..

Runways:

(A) RW 08 length 9503 ft width 200 ft
---- / hdg 77

(B) RW 12 length 6824 ft width 200 ft
---- / hdg 122

(C) RW 26 length 9503 ft width 200 ft
---- / hdg 257

(D) RW 30 length 6824 ft width 200 ft
---- / hdg 302

Location; KNJK
Day. 19 / Time. 02.56 Zulu
* Altimeter: 29.85
* Temperature: 35° c. 95°f.
* Wind from: 140° Speed 10 kn.
Dewpoint: 20° c.
Visibility: 10 Statute Miles.
Clouds: Few 8000 ft.
Clouds: Few 15000 ft.
Clouds: Few 25000 ft.

KNJK 190256Z 14010KT 10SM FEW080 FEW150 FEW250 35/20 A2985 RMK AO2 SLP122 T03500200 55004 $


Wind From 140°
Speed 10 kn.

 
 
jpsmedia.com for Web Design worldairports.se 2018   terms of use